createdAt,value
2022-07-25T00:00:09.443Z,61.81
2022-07-25T00:05:11.037Z,62.21
2022-07-25T00:10:12.602Z,61.96
2022-07-25T00:15:14.225Z,62.55
2022-07-25T00:20:15.790Z,62.23
2022-07-25T00:25:17.242Z,63.10
2022-07-25T00:30:18.783Z,63.14
2022-07-25T00:35:20.394Z,64.66
2022-07-25T00:40:22.490Z,65.24
2022-07-25T00:45:23.963Z,65.41
2022-07-25T00:50:25.566Z,64.82
2022-07-25T00:55:27.489Z,65.08
2022-07-25T01:00:29.106Z,65.00
2022-07-25T01:05:31.805Z,65.33
2022-07-25T01:10:34.376Z,65.94
2022-07-25T01:15:36.093Z,66.15
2022-07-25T01:20:37.788Z,66.25
2022-07-25T01:25:39.381Z,66.58
2022-07-25T01:30:41.015Z,68.07
2022-07-25T01:35:43.656Z,68.32
2022-07-25T01:40:45.293Z,68.21
2022-07-25T01:45:46.843Z,68.40
2022-07-25T01:50:48.455Z,68.29
2022-07-25T01:55:50.558Z,68.72
2022-07-25T02:00:53.742Z,68.75
2022-07-25T02:05:55.663Z,68.96
2022-07-25T02:10:58.022Z,69.63
2022-07-25T02:16:00.043Z,69.80
2022-07-25T02:21:01.629Z,70.12
2022-07-25T02:26:03.854Z,69.72
2022-07-25T02:31:05.668Z,70.57
2022-07-25T02:36:07.883Z,70.58
2022-07-25T02:41:09.424Z,71.83
2022-07-25T02:46:11.069Z,71.26
2022-07-25T02:51:12.813Z,72.14
2022-07-25T02:56:14.277Z,73.44
2022-07-25T03:01:16.313Z,72.63
2022-07-25T03:06:18.170Z,72.17
2022-07-25T03:11:19.723Z,73.38
2022-07-25T03:16:21.417Z,72.81
2022-07-25T03:21:22.968Z,73.08
2022-07-25T03:26:24.514Z,73.06
2022-07-25T03:31:26.561Z,73.67
2022-07-25T03:36:28.207Z,73.87
2022-07-25T03:41:29.708Z,73.23
2022-07-25T03:46:31.275Z,73.52
2022-07-25T03:51:32.788Z,73.65
2022-07-25T03:56:48.130Z,74.01
2022-07-25T04:01:50.609Z,73.85
2022-07-25T04:06:52.108Z,74.08
2022-07-25T04:11:53.558Z,76.05
2022-07-25T04:16:55.122Z,75.92
2022-07-25T04:21:56.717Z,74.71
2022-07-25T04:26:58.230Z,71.65
2022-07-25T04:31:59.734Z,67.04
2022-07-25T04:37:01.292Z,62.40
2022-07-25T04:42:02.744Z,58.18
2022-07-25T04:47:04.895Z,54.28
2022-07-25T04:52:06.363Z,54.07
2022-07-25T04:57:07.837Z,51.88
2022-07-25T05:02:09.340Z,48.08
2022-07-25T05:07:10.825Z,43.72
2022-07-25T05:12:12.354Z,40.54
2022-07-25T05:17:14.668Z,37.47
2022-07-25T05:22:16.198Z,36.46
2022-07-25T05:27:17.748Z,34.65
2022-07-25T05:32:19.507Z,32.86
2022-07-25T05:37:21.058Z,31.19
2022-07-25T05:42:22.835Z,31.38
2022-07-25T05:47:24.301Z,30.18
2022-07-25T05:52:25.786Z,27.75
2022-07-25T05:57:27.568Z,25.84
2022-07-25T06:02:29.192Z,26.08
2022-07-25T06:07:30.739Z,25.85
2022-07-25T06:12:33.692Z,25.49
2022-07-25T06:17:38.259Z,24.67
2022-07-25T06:22:40.327Z,24.51
2022-07-25T06:27:42.037Z,23.59
2022-07-25T06:32:43.493Z,23.87
2022-07-25T06:37:45.376Z,22.45
2022-07-25T06:42:47.847Z,22.45
2022-07-25T06:47:49.420Z,21.35
2022-07-25T06:52:51.039Z,21.22
2022-07-25T06:57:52.528Z,20.46
2022-07-25T07:03:01.438Z,20.42
2022-07-25T07:08:03.761Z,20.61
2022-07-25T07:13:10.647Z,20.78
2022-07-25T07:18:12.110Z,21.90
2022-07-25T07:23:16.515Z,22.34
2022-07-25T07:28:18.810Z,22.11
2022-07-25T07:33:20.357Z,22.06
2022-07-25T07:38:21.903Z,22.18
2022-07-25T07:43:29.364Z,21.68
2022-07-25T07:48:33.658Z,21.09
2022-07-25T07:53:53.589Z,19.40
2022-07-25T07:58:55.091Z,20.26
2022-07-25T08:03:56.739Z,20.47
2022-07-25T08:08:58.189Z,20.80
2022-07-25T08:13:59.732Z,19.83
2022-07-25T08:19:01.405Z,19.44
2022-07-25T08:24:03.223Z,18.68
2022-07-25T08:29:18.812Z,19.82
2022-07-25T08:34:22.493Z,20.54
2022-07-25T08:39:24.085Z,20.71
2022-07-25T08:44:30.961Z,18.64
2022-07-25T08:49:32.374Z,19.25
2022-07-25T08:54:33.912Z,20.26
2022-07-25T08:59:35.650Z,20.50
2022-07-25T09:04:38.081Z,19.76
2022-07-25T09:09:39.724Z,19.66
2022-07-25T09:14:44.644Z,19.21
2022-07-25T09:19:54.730Z,20.62
2022-07-25T09:24:56.319Z,20.14
2022-07-25T09:29:57.872Z,19.58
2022-07-25T09:34:59.326Z,19.96
2022-07-25T09:40:00.818Z,20.06
2022-07-25T09:45:06.667Z,20.15
2022-07-25T09:50:08.710Z,20.16
2022-07-25T09:55:11.019Z,20.33
2022-07-25T10:00:19.274Z,20.89
2022-07-25T10:05:31.554Z,21.18
2022-07-25T10:10:41.301Z,21.26
2022-07-25T10:15:53.138Z,21.53
2022-07-25T10:21:26.914Z,23.75
2022-07-25T10:26:30.468Z,25.24
2022-07-25T10:31:31.900Z,25.36
2022-07-25T10:36:56.080Z,24.45
2022-07-25T10:42:02.361Z,25.93
2022-07-25T10:47:08.726Z,26.03
2022-07-25T10:52:18.842Z,26.24
2022-07-25T10:57:20.997Z,25.83
2022-07-25T11:02:24.309Z,25.48
2022-07-25T11:07:28.631Z,25.61
2022-07-25T11:12:31.249Z,26.57
2022-07-25T11:17:32.867Z,27.09
2022-07-25T11:22:35.406Z,26.59
2022-07-25T11:27:36.904Z,26.22
2022-07-25T11:32:43.832Z,26.56
2022-07-25T11:37:48.846Z,26.82
2022-07-25T11:42:52.499Z,27.80
2022-07-25T11:48:10.112Z,27.08
2022-07-25T11:53:14.726Z,27.10
2022-07-25T11:58:17.707Z,26.41
2022-07-25T12:03:23.114Z,26.62
2022-07-25T12:08:25.458Z,27.79
2022-07-25T12:13:31.216Z,27.90
2022-07-25T12:18:32.719Z,28.15
2022-07-25T12:23:34.553Z,28.34
2022-07-25T12:28:36.150Z,28.00
2022-07-25T12:33:37.820Z,28.17
2022-07-25T12:38:39.515Z,27.71
2022-07-25T12:43:40.950Z,28.48
2022-07-25T12:48:42.503Z,28.23
2022-07-25T12:53:44.154Z,27.77
2022-07-25T12:58:45.827Z,27.25
2022-07-25T13:03:47.391Z,28.47
2022-07-25T13:08:48.928Z,27.90
2022-07-25T13:13:50.427Z,27.99
2022-07-25T13:18:52.086Z,27.92
2022-07-25T13:23:53.554Z,28.31
2022-07-25T13:28:59.645Z,27.94
2022-07-25T13:34:02.684Z,28.48
2022-07-25T13:39:05.160Z,29.17
2022-07-25T13:44:07.012Z,29.00
2022-07-25T13:49:09.349Z,28.71
2022-07-25T13:54:12.571Z,29.55
2022-07-25T13:59:18.948Z,30.40
2022-07-25T14:04:22.810Z,30.41
2022-07-25T14:09:24.351Z,31.73
2022-07-25T14:14:25.916Z,32.81
2022-07-25T14:19:27.437Z,37.79
2022-07-25T14:24:28.885Z,38.23
2022-07-25T14:29:30.764Z,38.80
2022-07-25T14:34:32.822Z,41.18
2022-07-25T14:39:34.541Z,42.41
2022-07-25T14:44:37.388Z,41.72
2022-07-25T14:49:40.212Z,41.63
2022-07-25T14:54:41.968Z,42.27
2022-07-25T14:59:43.455Z,43.57
2022-07-25T15:04:45.050Z,43.90
2022-07-25T15:09:46.650Z,44.29
2022-07-25T15:14:48.127Z,45.05
2022-07-25T15:19:49.653Z,44.71
2022-07-25T15:25:21.821Z,44.49
2022-07-25T15:30:12.649Z,44.39
2022-07-25T15:35:14.898Z,44.36
2022-07-25T15:40:16.406Z,44.30
2022-07-25T15:45:36.251Z,42.64
2022-07-25T15:50:40.469Z,42.27
2022-07-25T15:55:42.406Z,40.01
2022-07-25T16:00:44.080Z,37.90
2022-07-25T16:05:45.715Z,37.24
2022-07-25T16:10:47.544Z,37.36
2022-07-25T16:15:49.125Z,35.51
2022-07-25T16:20:50.618Z,35.20
2022-07-25T16:25:52.125Z,35.01
2022-07-25T16:30:53.660Z,34.91
2022-07-25T16:35:55.147Z,34.79
2022-07-25T16:40:56.575Z,35.32
2022-07-25T16:45:58.102Z,35.64
2022-07-25T16:50:59.717Z,36.36
2022-07-25T16:56:01.198Z,36.89
2022-07-25T17:01:02.690Z,37.02
2022-07-25T17:06:04.508Z,36.45
2022-07-25T17:11:06.142Z,36.79
2022-07-25T17:16:07.898Z,36.63
2022-07-25T17:21:10.583Z,36.51
2022-07-25T17:26:12.166Z,36.15
2022-07-25T17:31:14.313Z,36.53
2022-07-25T17:36:15.941Z,36.40
2022-07-25T17:41:17.878Z,37.16
2022-07-25T17:46:19.366Z,37.44
2022-07-25T17:51:20.847Z,38.07
2022-07-25T17:56:22.342Z,38.15
2022-07-25T18:01:23.925Z,38.43
2022-07-25T18:06:29.745Z,38.79
2022-07-25T18:11:31.738Z,39.05
2022-07-25T18:16:33.527Z,38.96
2022-07-25T18:21:35.052Z,39.54
2022-07-25T18:26:36.539Z,39.45
2022-07-25T18:31:38.113Z,39.51
2022-07-25T18:36:40.450Z,39.60
2022-07-25T18:41:42.020Z,39.94
2022-07-25T18:46:45.688Z,40.24
2022-07-25T18:51:47.309Z,40.59
2022-07-25T18:56:48.904Z,41.11
2022-07-25T19:01:51.213Z,40.80
2022-07-25T19:06:52.844Z,41.27
2022-07-25T19:11:56.714Z,41.34
2022-07-25T19:17:18.967Z,41.52
2022-07-25T19:22:20.850Z,41.51
2022-07-25T19:27:24.947Z,41.80
2022-07-25T19:32:27.120Z,42.16
2022-07-25T19:37:29.094Z,41.86
2022-07-25T19:42:30.562Z,41.91
2022-07-25T19:47:32.033Z,42.20
2022-07-25T19:52:33.522Z,42.11
2022-07-25T19:57:35.428Z,42.68
2022-07-25T20:02:37.014Z,42.85
2022-07-25T20:07:38.936Z,43.40
2022-07-25T20:12:40.414Z,43.24
2022-07-25T20:17:41.936Z,43.44
2022-07-25T20:22:44.287Z,43.15
2022-07-25T20:27:49.791Z,43.27
2022-07-25T20:32:51.405Z,43.40
2022-07-25T20:37:53.022Z,43.68
2022-07-25T20:42:55.677Z,44.15
2022-07-25T20:47:57.249Z,44.46
2022-07-25T20:52:58.821Z,44.83
2022-07-25T20:58:00.470Z,45.22
2022-07-25T21:03:02.118Z,45.30
2022-07-25T21:08:04.740Z,45.76
2022-07-25T21:13:06.220Z,45.95
2022-07-25T21:18:07.670Z,46.47
2022-07-25T21:23:10.805Z,46.70
2022-07-25T21:28:12.324Z,46.38
2022-07-25T21:33:14.818Z,46.84
2022-07-25T21:38:27.573Z,47.50
2022-07-25T21:43:29.826Z,47.58
2022-07-25T21:48:49.598Z,48.07
2022-07-25T21:53:52.817Z,47.92
2022-07-25T21:58:54.252Z,48.37
2022-07-25T22:03:55.748Z,48.87
2022-07-25T22:08:57.398Z,48.84
2022-07-25T22:13:58.851Z,48.89
2022-07-25T22:19:01.258Z,49.39
2022-07-25T22:24:02.741Z,49.56
2022-07-25T22:29:04.724Z,50.08
2022-07-25T22:34:07.033Z,49.75
2022-07-25T22:39:08.940Z,49.85
2022-07-25T22:44:10.948Z,50.14
2022-07-25T22:49:13.272Z,50.53
2022-07-25T22:54:14.947Z,50.39
2022-07-25T22:59:17.852Z,50.31
2022-07-25T23:04:19.406Z,50.70
2022-07-25T23:09:21.039Z,51.06
2022-07-25T23:14:22.505Z,51.09
2022-07-25T23:19:23.970Z,51.30
2022-07-25T23:24:25.475Z,51.42
2022-07-25T23:29:27.010Z,51.81
2022-07-25T23:34:28.567Z,51.86
2022-07-25T23:39:31.726Z,52.54
2022-07-25T23:44:33.310Z,52.48
2022-07-25T23:49:38.080Z,52.29
2022-07-25T23:54:40.609Z,52.85
2022-07-25T23:59:42.125Z,52.80
